Time;durP1;ratioP1;P1;durP2;ratioP2;P2;SDS_P1;SDS_P2;PMS_P1;PMS_P2;Temp;Humidity;BMP_temperature;BMP_pressure;BME280_temperature;BME280_humidity;BME280_pressure;Samples;Min_cycle;Max_cycle;Signal;HPM_P1;HPM_P2
2023/04/04 00:00:06;;;;;;;21.80;6.28;;;;;;;10.63;90.58;99987.50;5091790;28;20089;-79
2023/04/04 00:02:32;;;;;;;10.05;5.25;;;;;;;10.56;90.73;99983.66;5073797;28;20077;-79
2023/04/04 00:04:57;;;;;;;11.75;6.07;;;;;;;10.53;90.40;99969.66;5090850;28;20056;-80
2023/04/04 00:07:23;;;;;;;12.10;6.10;;;;;;;10.65;90.10;99961.31;5092390;28;20039;-80
2023/04/04 00:09:48;;;;;;;12.40;5.82;;;;;;;10.59;90.69;99951.13;5102762;28;20522;-79
2023/04/04 00:12:14;;;;;;;11.63;4.88;;;;;;;10.64;90.43;99964.16;5101964;28;20467;-82
2023/04/04 00:14:39;;;;;;;16.80;6.07;;;;;;;10.71;90.02;99949.13;5090983;28;20024;-80
2023/04/04 00:17:05;;;;;;;9.73;4.55;;;;;;;10.74;89.29;99938.94;5090545;28;20392;-80
2023/04/04 00:19:30;;;;;;;13.15;5.68;;;;;;;10.74;88.72;99940.78;5090980;28;20028;-80
2023/04/04 00:21:56;;;;;;;15.35;6.38;;;;;;;10.69;88.77;99925.09;5092386;28;20036;-81
2023/04/04 00:24:21;;;;;;;17.65;5.10;;;;;;;10.77;89.12;99921.66;5091586;28;20046;-81
2023/04/04 00:26:47;;;;;;;14.55;5.38;;;;;;;10.79;88.61;99936.66;5073179;28;20412;-80
2023/04/04 00:29:12;;;;;;;14.30;6.10;;;;;;;10.79;88.57;99942.03;5090765;28;20020;-81
2023/04/04 00:31:38;;;;;;;8.52;5.38;;;;;;;10.80;88.53;99938.38;5091149;28;20063;-80
2023/04/04 00:34:03;;;;;;;8.43;5.15;;;;;;;10.83;88.39;99938.06;5090664;28;20020;-79
2023/04/04 00:36:29;;;;;;;13.38;5.15;;;;;;;10.74;88.23;99930.88;5090409;28;20024;-79
2023/04/04 00:38:54;;;;;;;7.18;5.22;;;;;;;10.80;88.39;99937.50;5090226;28;20024;-81
2023/04/04 00:41:20;;;;;;;8.27;5.28;;;;;;;10.79;88.37;99930.47;5090679;28;20126;-82
2023/04/04 00:43:45;;;;;;;18.05;6.32;;;;;;;10.72;88.75;99932.88;5090166;28;20028;-80
2023/04/04 00:46:13;;;;;;;12.27;5.45;;;;;;;10.75;88.64;99897.59;5072248;28;20032;-79
2023/04/04 00:48:40;;;;;;;9.82;6.05;;;;;;;10.58;88.64;99897.50;5090754;28;20413;-80
2023/04/04 00:51:06;;;;;;;13.57;5.53;;;;;;;10.70;88.57;99905.25;5090554;28;20503;-80
2023/04/04 00:53:32;;;;;;;14.65;5.85;;;;;;;10.69;88.67;99900.88;5090732;28;20032;-81
2023/04/04 00:55:57;;;;;;;11.02;5.80;;;;;;;10.70;88.90;99905.25;5072713;28;20020;-80
2023/04/04 00:58:25;;;;;;;9.77;6.20;;;;;;;10.61;89.18;99889.97;5090421;28;20032;-80
2023/04/04 01:00:51;;;;;;;9.50;5.88;;;;;;;10.64;88.96;99883.47;5090608;28;20031;-81
2023/04/04 01:03:18;;;;;;;15.52;6.22;;;;;;;10.63;88.85;99882.63;5091371;28;20027;-80
2023/04/04 01:05:43;;;;;;;10.10;5.80;;;;;;;10.58;89.10;99884.88;5094046;28;20020;-80
2023/04/04 01:08:09;;;;;;;9.43;5.88;;;;;;;10.61;88.68;99879.22;5102580;28;20028;-80
2023/04/04 01:10:35;;;;;;;16.08;5.32;;;;;;;10.64;89.05;99884.31;5100659;28;20051;-80
2023/04/04 01:13:01;;;;;;;12.48;6.43;;;;;;;10.60;88.98;99858.72;5089685;28;20043;-79
2023/04/04 01:15:26;;;;;;;13.68;5.00;;;;;;;10.65;89.26;99859.13;5089740;28;20039;-79
2023/04/04 01:17:56;;;;;;;12.45;5.07;;;;;;;10.68;89.17;99853.44;5090101;28;20058;-80
2023/04/04 01:20:25;;;;;;;8.27;4.97;;;;;;;10.67;88.71;99865.19;5054344;28;20040;-79
2023/04/04 01:22:53;;;;;;;11.88;5.55;;;;;;;10.63;89.25;99836.91;5090949;28;20016;-80
2023/04/04 01:25:29;;;;;;;13.68;5.95;;;;;;;10.63;89.34;99844.97;5090643;28;20031;-78
2023/04/04 01:27:55;;;;;;;9.73;4.90;;;;;;;10.63;89.36;99839.59;5090884;28;20110;-78
2023/04/04 01:30:22;;;;;;;17.02;6.88;;;;;;;10.65;89.37;99844.81;5090641;28;20089;-80
2023/04/04 01:32:59;;;;;;;9.13;5.85;;;;;;;10.68;89.56;99837.31;5090967;28;20028;-78
2023/04/04 01:35:37;;;;;;;9.55;5.50;;;;;;;10.72;89.27;99837.88;5090131;28;20034;-79
2023/04/04 01:38:27;;;;;;;15.95;6.25;;;;;;;10.72;89.05;99825.28;5093416;28;20114;-80
2023/04/04 01:41:02;;;;;;;10.50;6.45;;;;;;;10.64;89.39;99822.47;5094105;28;20091;-78
2023/04/04 01:43:31;;;;;;;10.52;5.50;;;;;;;10.59;89.73;99830.13;5089671;28;20020;-80
2023/04/04 01:46:00;;;;;;;18.15;6.78;;;;;;;10.62;90.05;99829.81;5088790;28;20024;-79
2023/04/04 01:48:26;;;;;;;11.48;6.43;;;;;;;10.59;89.96;99800.53;5088951;28;20559;-81
2023/04/04 01:50:52;;;;;;;21.63;7.10;;;;;;;10.67;90.04;99808.72;5089326;28;20032;-80
2023/04/04 01:53:18;;;;;;;10.90;6.22;;;;;;;10.69;89.88;99800.53;5089449;28;20077;-80
2023/04/04 01:55:43;;;;;;;12.15;6.68;;;;;;;10.62;90.16;99780.56;5088934;28;20031;-79
2023/04/04 01:58:09;;;;;;;15.43;8.85;;;;;;;10.63;90.41;99775.06;5088876;28;20035;-79
2023/04/04 02:00:34;;;;;;;15.00;7.72;;;;;;;10.70;90.54;99746.56;5088730;28;20032;-80
2023/04/04 02:03:01;;;;;;;18.67;8.05;;;;;;;10.75;89.68;99747.00;5089163;28;20020;-80
2023/04/04 02:05:27;;;;;;;12.05;7.82;;;;;;;10.77;89.77;99736.09;5100793;28;20063;-80
2023/04/04 02:07:52;;;;;;;21.55;8.98;;;;;;;10.69;89.81;99726.09;5100500;28;20368;-80
2023/04/04 02:10:18;;;;;;;24.33;9.48;;;;;;;10.81;90.24;99730.28;5090749;28;20498;-79
2023/04/04 02:12:44;;;;;;;19.17;9.93;;;;;;;10.76;90.73;99718.28;5089196;28;20603;-79
2023/04/04 02:15:10;;;;;;;19.02;7.95;;;;;;;10.87;89.94;99728.81;5089357;28;20089;-79
2023/04/04 02:17:35;;;;;;;19.75;8.65;;;;;;;10.86;89.81;99711.00;5088291;28;20052;-79
2023/04/04 02:20:01;;;;;;;15.25;8.40;;;;;;;10.81;90.01;99708.75;5088956;28;20742;-79
2023/04/04 02:22:26;;;;;;;17.73;10.20;;;;;;;10.83;91.32;99700.53;5088562;28;20115;-79
2023/04/04 02:24:56;;;;;;;18.15;9.40;;;;;;;10.84;90.59;99711.16;5089036;28;20031;-78
2023/04/04 02:27:22;;;;;;;14.90;9.10;;;;;;;10.91;90.89;99698.81;5088753;28;20028;-80
2023/04/04 02:29:48;;;;;;;20.88;10.38;;;;;;;10.89;91.84;99689.16;5088499;28;20043;-79
2023/04/04 02:32:13;;;;;;;25.13;9.95;;;;;;;11.07;91.09;99708.06;5089081;28;20504;-80
2023/04/04 02:34:38;;;;;;;17.70;10.48;;;;;;;11.02;90.87;99707.66;5073235;28;20024;-79
2023/04/04 02:37:04;;;;;;;34.20;13.73;;;;;;;10.96;90.69;99706.41;5102908;28;20043;-80
2023/04/04 02:39:29;;;;;;;19.88;10.07;;;;;;;11.02;90.34;99699.59;5106167;28;20024;-79
2023/04/04 02:41:55;;;;;;;17.08;10.10;;;;;;;11.03;90.85;99714.72;5104266;28;20535;-79
2023/04/04 02:44:21;;;;;;;24.90;10.18;;;;;;;11.04;90.37;99695.72;5089227;28;20028;-78
2023/04/04 02:46:47;;;;;;;19.38;9.98;;;;;;;11.10;90.08;99688.94;5088809;28;20107;-79
2023/04/04 02:49:13;;;;;;;20.85;9.70;;;;;;;11.12;90.15;99690.47;5088764;28;20485;-79
2023/04/04 02:51:38;;;;;;;25.95;10.43;;;;;;;11.07;90.15;99697.31;5088649;28;20118;-81
2023/04/04 02:54:04;;;;;;;24.15;9.65;;;;;;;11.00;89.71;99670.16;5088474;28;20028;-79
2023/04/04 02:56:29;;;;;;;20.67;10.90;;;;;;;11.02;90.04;99678.06;5071350;28;20042;-81
2023/04/04 02:58:55;;;;;;;25.83;9.55;;;;;;;11.01;90.19;99682.59;5092817;28;20198;-80
2023/04/04 03:01:20;;;;;;;24.23;10.25;;;;;;;11.03;90.26;99694.06;5093055;28;20036;-79
2023/04/04 03:03:46;;;;;;;20.40;10.25;;;;;;;11.00;90.36;99680.06;5104355;28;20024;-79
2023/04/04 03:06:13;;;;;;;18.23;10.20;;;;;;;11.00;90.31;99685.44;5103996;28;20047;-80
2023/04/04 03:08:39;;;;;;;23.02;11.07;;;;;;;10.92;90.81;99684.34;5092410;28;20693;-79
2023/04/04 03:11:05;;;;;;;24.10;10.27;;;;;;;10.90;90.65;99685.50;5092269;28;20028;-80
2023/04/04 03:13:31;;;;;;;22.33;11.10;;;;;;;10.89;90.93;99652.34;5092563;28;20035;-79
2023/04/04 03:16:05;;;;;;;24.63;10.88;;;;;;;10.91;91.01;99653.06;5091817;28;20040;-81
2023/04/04 03:18:30;;;;;;;19.85;9.75;;;;;;;10.85;90.84;99650.13;5091954;28;20502;-81
2023/04/04 03:20:56;;;;;;;21.00;10.43;;;;;;;10.90;91.19;99664.81;5091603;28;20134;-80
2023/04/04 03:23:21;;;;;;;23.48;12.48;;;;;;;10.90;91.12;99659.44;5091900;28;20092;-80
2023/04/04 03:25:47;;;;;;;34.30;15.38;;;;;;;10.93;90.70;99656.44;5091454;28;20107;-80
2023/04/04 03:28:12;;;;;;;20.50;11.10;;;;;;;10.92;90.08;99657.44;5091393;28;20028;-80
2023/04/04 03:30:38;;;;;;;29.50;12.23;;;;;;;10.80;90.83;99647.88;5091255;28;20024;-79
2023/04/04 03:33:06;;;;;;;28.27;12.25;;;;;;;10.81;90.91;99654.97;5091643;28;20020;-80
2023/04/04 03:35:32;;;;;;;26.10;12.43;;;;;;;10.78;91.28;99657.97;5091144;28;20020;-78
2023/04/04 03:38:01;;;;;;;27.02;12.85;;;;;;;10.73;91.76;99662.91;5072001;28;20579;-79
2023/04/04 03:40:26;;;;;;;23.85;13.32;;;;;;;10.73;91.44;99660.22;5091206;28;20031;-79
2023/04/04 03:42:52;;;;;;;22.27;12.30;;;;;;;10.77;91.58;99672.38;5091043;28;20020;-81
2023/04/04 03:45:17;;;;;;;31.38;11.77;;;;;;;10.69;92.10;99672.28;5091543;28;20460;-80
2023/04/04 03:47:43;;;;;;;39.20;14.18;;;;;;;10.71;92.00;99691.81;5090926;28;20052;-82
2023/04/04 03:50:09;;;;;;;21.52;13.27;;;;;;;10.72;92.45;99687.28;5091842;28;20062;-80
2023/04/04 03:52:40;;;;;;;32.88;14.82;;;;;;;10.72;92.08;99688.13;5089978;28;20028;-85
2023/04/04 03:55:07;;;;;;;25.05;12.98;;;;;;;10.78;92.18;99700.13;5092859;28;20060;-80
2023/04/04 03:57:33;;;;;;;24.73;13.32;;;;;;;10.82;91.75;99685.41;5091369;28;20048;-86
2023/04/04 03:59:58;;;;;;;23.73;13.63;;;;;;;10.78;91.91;99703.69;5102339;28;20039;-78
2023/04/04 04:02:24;;;;;;;25.75;15.50;;;;;;;10.82;91.94;99675.47;5110592;28;20515;-83
2023/04/04 04:04:49;;;;;;;21.75;12.35;;;;;;;10.84;91.58;99681.56;5103636;28;20150;-85
2023/04/04 04:07:15;;;;;;;24.27;12.43;;;;;;;10.91;92.18;99689.88;5089977;28;20032;-82
2023/04/04 04:09:40;;;;;;;24.67;14.18;;;;;;;10.95;92.07;99683.19;5089985;28;20051;-79
2023/04/04 04:12:06;;;;;;;18.55;12.15;;;;;;;10.93;91.69;99675.28;5089984;28;20038;-83
2023/04/04 04:14:31;;;;;;;21.30;12.65;;;;;;;10.87;91.82;99673.19;5091779;28;20047;-84
2023/04/04 04:16:57;;;;;;;21.73;12.70;;;;;;;10.87;92.17;99658.88;5090740;28;20059;-81
2023/04/04 04:19:22;;;;;;;25.25;13.73;;;;;;;10.79;91.87;99639.97;5089614;28;20027;-80
2023/04/04 04:21:48;;;;;;;27.20;13.98;;;;;;;10.88;92.14;99639.94;5089369;28;20044;-79
2023/04/04 04:24:13;;;;;;;26.45;13.27;;;;;;;10.80;92.22;99642.50;5089397;28;20034;-79
2023/04/04 04:26:38;;;;;;;32.85;15.05;;;;;;;10.72;92.51;99623.59;5089286;28;20039;-79
2023/04/04 04:29:04;;;;;;;21.73;13.30;;;;;;;10.76;92.83;99645.66;5089212;28;20032;-79
2023/04/04 04:31:30;;;;;;;26.33;14.98;;;;;;;10.78;92.87;99625.69;5089524;28;20874;-83
2023/04/04 04:33:55;;;;;;;24.33;13.93;;;;;;;10.68;93.63;99606.06;5085868;28;20031;-84
2023/04/04 04:36:21;;;;;;;24.75;12.43;;;;;;;10.78;92.84;99596.09;5093998;28;20553;-81
2023/04/04 04:38:47;;;;;;;25.67;12.52;;;;;;;10.75;92.80;99591.03;5093080;28;20024;-92
2023/04/04 04:41:12;;;;;;;28.85;13.02;;;;;;;10.76;92.89;99564.97;5091559;28;20034;-89
2023/04/04 04:43:37;;;;;;;23.25;10.93;;;;;;;10.73;92.60;99576.84;5090764;28;20088;-82
2023/04/04 04:46:03;;;;;;;26.77;13.70;;;;;;;10.84;92.70;99582.03;5089328;28;20032;-79
2023/04/04 04:48:28;;;;;;;31.00;14.20;;;;;;;10.85;92.58;99558.69;5088741;28;20028;-78
2023/04/04 04:50:54;;;;;;;25.85;13.60;;;;;;;10.97;92.00;99567.38;5088472;28;20016;-80
2023/04/04 04:53:19;;;;;;;29.52;14.13;;;;;;;10.95;91.96;99574.75;5088978;28;20031;-78
2023/04/04 04:55:45;;;;;;;26.35;13.57;;;;;;;10.95;91.84;99591.72;5088652;28;20039;-79
2023/04/04 04:58:11;;;;;;;45.70;14.45;;;;;;;11.00;91.49;99610.97;5092423;28;20408;-77
2023/04/04 05:00:37;;;;;;;29.38;13.48;;;;;;;11.01;91.07;99639.53;5091414;28;20036;-77
2023/04/04 05:03:06;;;;;;;42.20;13.85;;;;;;;10.89;91.44;99644.28;5076983;28;20027;-83
2023/04/04 05:05:33;;;;;;;29.00;14.80;;;;;;;10.95;91.75;99632.06;5068146;28;20032;-79
2023/04/04 05:08:01;;;;;;;37.22;15.00;;;;;;;10.96;91.35;99667.91;5068169;28;20021;-79
2023/04/04 05:10:26;;;;;;;31.55;13.35;;;;;;;10.99;91.84;99659.53;5068184;28;20032;-81
2023/04/04 05:12:52;;;;;;;39.85;14.95;;;;;;;11.01;91.28;99665.63;5068160;28;20023;-79
2023/04/04 05:15:17;;;;;;;49.22;15.65;;;;;;;11.07;91.34;99679.28;5067527;28;20035;-77
2023/04/04 05:17:43;;;;;;;27.98;14.15;;;;;;;11.11;90.54;99680.69;5067765;28;20387;-77
2023/04/04 05:20:09;;;;;;;23.52;13.07;;;;;;;11.11;90.31;99672.63;5067396;28;20697;-78
2023/04/04 05:22:34;;;;;;;29.73;12.65;;;;;;;11.17;90.44;99676.53;5067686;28;20024;-77
2023/04/04 05:25:00;;;;;;;44.80;12.43;;;;;;;11.37;89.63;99702.34;5067656;28;20036;-79
2023/04/04 05:27:25;;;;;;;23.50;11.20;;;;;;;11.49;88.70;99709.19;5068487;28;20072;-84
2023/04/04 05:29:51;;;;;;;35.45;12.05;;;;;;;11.53;88.29;99710.56;5068394;28;20031;-79
2023/04/04 05:32:16;;;;;;;38.78;11.70;;;;;;;11.47;87.93;99716.56;5068422;28;20039;-80
2023/04/04 05:34:42;;;;;;;31.08;12.25;;;;;;;11.45;87.90;99719.44;5068794;28;20697;-83
2023/04/04 05:37:07;;;;;;;27.02;9.98;;;;;;;11.58;87.79;99713.66;5065219;28;20094;-78
2023/04/04 05:39:35;;;;;;;35.92;11.43;;;;;;;11.67;87.38;99718.13;5067681;28;20068;-77
2023/04/04 05:42:00;;;;;;;46.33;11.02;;;;;;;11.82;87.41;99710.38;5067471;28;20440;-78
2023/04/04 05:44:26;;;;;;;27.77;9.23;;;;;;;11.80;86.18;99699.75;5067559;28;20032;-78
2023/04/04 05:46:51;;;;;;;23.88;9.80;;;;;;;11.91;85.96;99707.59;5067971;28;20085;-77
2023/04/04 05:49:17;;;;;;;24.67;11.30;;;;;;;11.92;85.42;99722.78;5070234;28;20050;-76
2023/04/04 05:51:42;;;;;;;34.53;10.55;;;;;;;11.96;85.48;99713.34;5070495;28;20032;-77
2023/04/04 05:54:08;;;;;;;31.88;10.02;;;;;;;11.97;85.06;99704.28;5070180;28;20082;-78
2023/04/04 05:56:33;;;;;;;24.83;8.07;;;;;;;11.97;85.61;99717.75;5069930;28;20527;-78
2023/04/04 05:58:59;;;;;;;36.65;10.48;;;;;;;12.02;85.65;99716.47;5068776;28;20037;-79
2023/04/04 06:01:25;;;;;;;32.97;8.88;;;;;;;12.05;85.21;99718.84;5071070;28;20097;-78
2023/04/04 06:03:50;;;;;;;31.15;10.02;;;;;;;12.00;85.15;99733.63;5071467;28;20025;-76
2023/04/04 06:06:17;;;;;;;20.70;9.80;;;;;;;11.97;85.36;99706.13;5068000;28;20399;-78
2023/04/04 06:08:42;;;;;;;29.50;9.15;;;;;;;11.93;85.25;99710.97;5067001;28;20063;-78
2023/04/04 06:11:08;;;;;;;20.88;9.15;;;;;;;11.97;85.60;99706.97;5067746;28;20143;-79
2023/04/04 06:13:33;;;;;;;29.90;10.73;;;;;;;11.94;85.53;99693.81;5067274;28;20029;-80
2023/04/04 06:15:58;;;;;;;41.35;10.55;;;;;;;11.99;85.45;99691.50;5067044;28;20052;-78
2023/04/04 06:18:24;;;;;;;25.63;10.25;;;;;;;12.02;84.84;99690.31;5066630;28;20033;-77
2023/04/04 06:20:49;;;;;;;30.00;8.82;;;;;;;12.04;85.16;99692.88;5068274;28;20104;-78
2023/04/04 06:23:15;;;;;;;25.50;8.80;;;;;;;12.13;84.96;99702.72;5086749;28;20035;-78
2023/04/04 06:25:40;;;;;;;31.27;9.52;;;;;;;12.03;85.27;99700.13;5087563;28;20506;-79
2023/04/04 06:28:06;;;;;;;40.85;9.43;;;;;;;12.06;85.34;99712.41;5087081;28;20119;-80
2023/04/04 06:30:36;;;;;;;23.98;8.95;;;;;;;12.04;85.14;99709.06;5089189;28;20024;-78
2023/04/04 06:33:02;;;;;;;22.00;8.70;;;;;;;11.97;85.36;99709.69;5091021;28;20176;-80
2023/04/04 06:35:27;;;;;;;29.73;9.98;;;;;;;12.07;85.68;99692.56;5090793;28;20230;-80
2023/04/04 06:37:54;;;;;;;28.05;8.80;;;;;;;12.02;85.76;99693.88;5090740;28;20032;-78
2023/04/04 06:40:20;;;;;;;26.63;8.70;;;;;;;11.97;86.21;99677.34;5091448;28;20063;-77
2023/04/04 06:42:50;;;;;;;30.05;9.65;;;;;;;12.00;86.21;99682.41;5090088;28;20067;-80
2023/04/04 06:45:16;;;;;;;21.85;8.10;;;;;;;11.87;86.41;99641.56;5090705;28;20042;-77
2023/04/04 06:47:42;;;;;;;22.40;8.70;;;;;;;12.15;86.37;99653.03;5091131;28;20032;-78
2023/04/04 06:50:08;;;;;;;25.02;7.63;;;;;;;12.21;86.22;99641.63;5077120;28;20020;-79
2023/04/04 06:52:34;;;;;;;17.58;8.35;;;;;;;12.22;85.82;99632.53;5095209;28;20119;-78
2023/04/04 06:54:59;;;;;;;26.23;10.25;;;;;;;12.22;86.06;99604.72;5090666;28;20127;-78
2023/04/04 06:57:25;;;;;;;28.02;9.23;;;;;;;12.37;85.41;99603.13;5090335;28;20468;-78
2023/04/04 06:59:51;;;;;;;33.75;8.77;;;;;;;12.44;85.24;99601.47;5090656;28;20024;-78
2023/04/04 07:02:16;;;;;;;22.73;9.02;;;;;;;12.45;84.62;99586.97;5090742;28;20028;-78
2023/04/04 07:04:42;;;;;;;17.88;8.80;;;;;;;12.42;84.55;99579.19;5070160;28;20084;-80
2023/04/04 07:07:07;;;;;;;30.77;9.05;;;;;;;12.49;84.54;99572.16;5089259;28;20036;-79
2023/04/04 07:09:33;;;;;;;26.60;9.05;;;;;;;12.45;84.25;99589.66;5083621;28;20108;-81
2023/04/04 07:11:58;;;;;;;18.38;8.65;;;;;;;12.35;84.62;99580.88;5069742;28;20144;-77
2023/04/04 07:14:24;;;;;;;25.63;9.93;;;;;;;12.33;84.82;99596.34;5070094;28;20099;-78
2023/04/04 07:16:50;;;;;;;25.50;10.50;;;;;;;12.41;85.11;99620.69;5069352;28;20059;-79
2023/04/04 07:19:16;;;;;;;37.53;11.38;;;;;;;12.51;84.49;99618.69;5070899;28;20097;-79
2023/04/04 07:21:42;;;;;;;27.70;9.98;;;;;;;12.54;84.22;99627.28;5070544;28;20029;-81
2023/04/04 07:24:08;;;;;;;26.85;9.88;;;;;;;12.60;84.16;99622.28;5070264;28;20071;-81
2023/04/04 07:26:34;;;;;;;25.70;8.20;;;;;;;12.66;83.44;99625.16;5069645;28;20028;-80
2023/04/04 07:28:59;;;;;;;19.52;9.32;;;;;;;12.73;82.54;99619.94;5069399;28;20025;-78
2023/04/04 07:31:25;;;;;;;23.55;9.27;;;;;;;12.79;81.94;99630.94;5036199;28;20506;-80
2023/04/04 07:33:52;;;;;;;33.47;9.15;;;;;;;12.82;82.96;99609.03;5070643;28;20070;-83
2023/04/04 07:36:18;;;;;;;45.83;10.98;;;;;;;13.06;82.15;99600.16;5072951;28;20024;-83
2023/04/04 07:38:43;;;;;;;36.25;11.45;;;;;;;13.20;81.38;99607.66;5091067;28;20039;-86
2023/04/04 07:41:10;;;;;;;38.33;11.07;;;;;;;13.19;80.73;99605.94;5090717;28;20570;-86
2023/04/04 07:43:36;;;;;;;35.42;11.35;;;;;;;13.24;80.06;99581.16;5093908;28;20024;-83
2023/04/04 07:46:01;;;;;;;28.92;10.00;;;;;;;13.20;80.03;99579.78;5110226;28;20035;-84
2023/04/04 07:48:27;;;;;;;39.33;11.27;;;;;;;13.06;80.78;99584.78;5111412;28;20046;-82
2023/04/04 07:50:52;;;;;;;20.65;9.13;;;;;;;12.88;80.74;99591.34;5095614;28;20487;-80
2023/04/04 07:53:18;;;;;;;45.70;11.88;;;;;;;12.96;81.57;99603.03;5091317;28;20107;-82
2023/04/04 07:55:43;;;;;;;51.33;11.77;;;;;;;13.16;81.72;99616.22;5090739;28;20039;-83
2023/04/04 07:58:09;;;;;;;44.00;9.32;;;;;;;12.98;81.16;99611.78;5087250;28;20388;-79
2023/04/04 08:00:34;;;;;;;27.35;9.57;;;;;;;13.01;81.14;99603.34;5081621;28;20032;-82
2023/04/04 08:03:01;;;;;;;33.22;8.45;;;;;;;13.10;81.31;99596.16;5089897;28;20024;-80
2023/04/04 08:05:27;;;;;;;47.35;10.95;;;;;;;13.15;81.32;99582.97;5082960;28;20112;-84
2023/04/04 08:07:52;;;;;;;32.08;9.38;;;;;;;13.22;80.34;99584.00;5090284;28;20489;-82
2023/04/04 08:10:20;;;;;;;36.97;9.75;;;;;;;12.83;81.24;99545.97;5053547;28;20040;-77
2023/04/04 08:12:45;;;;;;;38.45;10.02;;;;;;;12.97;81.45;99555.25;5087737;28;20028;-79
2023/04/04 08:15:11;;;;;;;33.05;9.70;;;;;;;13.06;81.56;99552.41;5090173;28;20757;-77
2023/04/04 08:17:37;;;;;;;25.83;8.93;;;;;;;12.99;81.22;99550.56;5088626;28;20048;-78
2023/04/04 08:20:03;;;;;;;63.45;14.48;;;;;;;13.09;81.69;99562.91;5088547;28;20017;-79
2023/04/04 08:22:29;;;;;;;36.33;10.88;;;;;;;13.22;81.01;99567.81;5090195;28;20036;-83
2023/04/04 08:24:54;;;;;;;33.75;10.13;;;;;;;13.19;80.62;99592.44;5089036;28;20046;-78
2023/04/04 08:27:20;;;;;;;27.55;8.43;;;;;;;13.19;80.34;99594.31;5089295;28;20032;-78
2023/04/04 08:29:47;;;;;;;45.22;9.68;;;;;;;13.20;80.70;99586.03;5088845;28;20041;-80
2023/04/04 08:32:13;;;;;;;29.15;8.52;;;;;;;13.33;80.36;99574.75;5089151;28;20032;-83
2023/04/04 08:34:40;;;;;;;33.10;10.90;;;;;;;13.28;81.02;99582.50;5089910;28;20028;-79
2023/04/04 08:37:06;;;;;;;31.95;9.60;;;;;;;13.45;80.59;99573.41;5092122;28;20043;-83
2023/04/04 08:39:31;;;;;;;39.85;11.38;;;;;;;13.44;80.45;99577.97;5091582;28;20035;-83
2023/04/04 08:42:04;;;;;;;34.45;10.20;;;;;;;13.55;80.16;99574.91;5105405;28;20090;-79
2023/04/04 08:44:30;;;;;;;;;;;;;;;13.61;79.58;99578.78;5112102;28;20027;-81
2023/04/04 08:46:57;;;;;;;47.78;10.93;;;;;;;13.53;79.49;99576.94;5096490;28;19916;-79
2023/04/04 08:49:25;;;;;;;30.88;8.52;;;;;;;13.58;79.78;99590.78;5090929;28;20146;-81
2023/04/04 08:51:53;;;;;;;28.30;8.95;;;;;;;13.55;80.08;99583.00;5089463;28;20414;-78
2023/04/04 08:54:20;;;;;;;36.00;9.75;;;;;;;13.70;79.13;99587.75;5088067;28;20031;-82
2023/04/04 08:56:46;;;;;;;40.80;9.95;;;;;;;13.84;79.27;99587.06;5089035;28;20035;-80
2023/04/04 08:59:14;;;;;;;33.78;9.63;;;;;;;13.92;79.00;99563.56;5089601;28;20035;-84
2023/04/04 09:01:40;;;;;;;54.67;10.05;;;;;;;14.03;78.86;99584.84;5090216;28;20039;-81
2023/04/04 09:04:07;;;;;;;31.90;9.57;;;;;;;14.12;77.96;99572.97;5088885;28;20024;-88
2023/04/04 09:06:33;;;;;;;34.55;11.63;;;;;;;14.03;77.11;99597.50;5088965;28;20111;-83
2023/04/04 09:09:00;;;;;;;29.05;9.45;;;;;;;14.07;77.48;99617.75;5090272;28;20051;-84
2023/04/04 09:11:30;;;;;;;56.05;11.82;;;;;;;14.14;77.45;99614.22;5088844;28;20032;-84
2023/04/04 09:13:57;;;;;;;28.63;9.50;;;;;;;13.86;78.21;99626.41;5055465;28;20016;-86
2023/04/04 09:16:23;;;;;;;44.35;10.02;;;;;;;13.81;78.40;99612.56;5084391;28;20426;-80
2023/04/04 09:18:48;;;;;;;44.58;11.63;;;;;;;13.94;78.56;99601.25;5089386;28;20542;-80
2023/04/04 09:21:14;;;;;;;49.10;11.30;;;;;;;14.00;77.86;99609.50;5108344;28;20051;-81
2023/04/04 09:23:42;;;;;;;56.53;13.32;;;;;;;14.05;77.79;99617.94;5108378;28;20061;-84
2023/04/04 09:26:08;;;;;;;50.85;11.25;;;;;;;14.15;77.90;99625.88;5105412;28;20024;-82
2023/04/04 09:28:34;;;;;;;31.63;8.25;;;;;;;14.12;77.93;99629.78;5096326;28;20031;-84
2023/04/04 09:31:04;;;;;;;39.25;10.23;;;;;;;14.05;77.83;99617.09;5090067;28;20028;-85
2023/04/04 09:33:30;;;;;;;52.15;9.70;;;;;;;14.23;77.36;99639.38;5091328;28;20055;-85
2023/04/04 09:35:58;;;;;;;52.83;11.43;;;;;;;14.13;77.45;99639.56;5091070;28;20035;-84
2023/04/04 09:38:25;;;;;;;54.75;10.77;;;;;;;14.24;78.23;99645.63;5107891;28;20047;-82
2023/04/04 09:40:51;;;;;;;32.42;9.77;;;;;;;14.31;77.28;99619.59;5111147;28;20024;-80
2023/04/04 09:43:18;;;;;;;49.33;12.57;;;;;;;14.47;76.98;99624.97;5095877;28;20032;-85
2023/04/04 09:45:44;;;;;;;46.97;10.50;;;;;;;14.43;75.78;99623.63;5088635;28;20024;-83
2023/04/04 09:48:10;;;;;;;46.83;11.80;;;;;;;14.52;75.64;99622.59;5088726;28;20034;-83
2023/04/04 09:50:44;;;;;;;42.03;11.05;;;;;;;14.40;75.87;99607.75;5088175;28;20454;-83
2023/04/04 09:53:15;;;;;;;59.33;11.07;;;;;;;14.31;75.96;99625.00;5088518;28;20024;-86
2023/04/04 09:55:41;;;;;;;44.28;8.85;;;;;;;14.42;76.99;99627.34;5088883;28;20432;-84
2023/04/04 09:58:17;;;;;;;41.80;10.45;;;;;;;14.34;77.05;99624.69;5088312;28;20039;-84
2023/04/04 10:00:47;;;;;;;46.33;10.82;;;;;;;14.27;76.91;99612.81;5089228;28;20024;-84
2023/04/04 10:03:17;;;;;;;33.97;9.40;;;;;;;14.36;77.01;99617.22;5089431;28;20028;-83
2023/04/04 10:05:46;;;;;;;50.42;9.32;;;;;;;14.64;76.99;99615.78;5091425;28;20023;-82
2023/04/04 10:08:17;;;;;;;38.42;10.85;;;;;;;14.60;75.84;99614.44;5093299;28;20028;-87
2023/04/04 10:10:56;;;;;;;46.25;9.45;;;;;;;14.84;76.01;99618.88;5093308;28;20024;-85
2023/04/04 10:13:32;;;;;;;35.65;8.95;;;;;;;14.54;75.97;99620.53;5094017;28;20490;-83
2023/04/04 10:16:00;;;;;;;60.25;13.40;;;;;;;14.74;76.13;99610.16;5094600;28;20044;-85
2023/04/04 10:18:28;;;;;;;48.75;12.10;;;;;;;14.82;75.52;99613.66;5093937;28;20028;-85
2023/04/04 10:20:55;;;;;;;46.50;11.02;;;;;;;14.97;74.48;99605.63;5095324;28;20035;-84
2023/04/04 10:23:24;;;;;;;36.20;10.35;;;;;;;14.95;74.26;99619.34;5094366;28;20028;-86
2023/04/04 10:25:50;;;;;;;54.17;11.45;;;;;;;15.15;74.37;99598.94;5096461;28;20028;-83
2023/04/04 10:28:20;;;;;;;36.40;9.68;;;;;;;15.40;73.37;99602.31;5089213;28;20110;-82
2023/04/04 10:31:05;;;;;;;45.65;10.10;;;;;;;15.38;72.41;99607.03;5079023;28;20052;-81
2023/04/04 10:33:43;;;;;;;50.85;10.35;;;;;;;15.46;72.66;99614.28;5081430;28;20032;-81
2023/04/04 10:36:11;;;;;;;63.67;13.90;;;;;;;15.68;71.77;99617.03;5084185;28;20039;-81
2023/04/04 10:38:47;;;;;;;64.25;12.30;;;;;;;15.81;71.14;99616.38;5076976;28;20036;-78
2023/04/04 10:41:13;;;;;;;35.10;9.60;;;;;;;15.64;71.02;99617.56;5071789;28;20019;-80
2023/04/04 10:43:43;;;;;;;49.78;9.25;;;;;;;15.67;70.28;99619.91;5082023;28;20024;-83
2023/04/04 10:46:12;;;;;;;40.10;9.55;;;;;;;15.43;70.74;99618.22;5091317;28;20024;-82
2023/04/04 10:48:40;;;;;;;47.00;9.20;;;;;;;15.48;71.50;99615.81;5092879;28;20050;-81
2023/04/04 10:51:06;;;;;;;46.63;10.55;;;;;;;15.43;71.56;99620.06;5090921;28;20435;-82
2023/04/04 10:53:32;;;;;;;46.25;15.20;;;;;;;15.34;71.79;99618.44;5090914;28;20031;-82
2023/04/04 10:56:00;;;;;;;49.67;10.23;;;;;;;15.55;71.91;99627.63;5055038;28;20189;-80
2023/04/04 10:58:27;;;;;;;49.70;10.57;;;;;;;15.58;70.80;99616.44;5090842;28;20024;-80
2023/04/04 11:00:54;;;;;;;45.35;9.77;;;;;;;15.61;70.55;99631.47;5037642;28;20508;-81
2023/04/04 11:03:21;;;;;;;44.25;10.20;;;;;;;15.51;71.56;99611.91;5090655;28;20410;-81
2023/04/04 11:05:47;;;;;;;51.55;11.55;;;;;;;15.52;71.58;99621.72;5090994;28;20035;-81
2023/04/04 11:08:25;;;;;;;102.55;13.75;;;;;;;15.56;71.98;99620.34;5090704;28;20035;-79
2023/04/04 11:10:52;;;;;;;46.47;11.40;;;;;;;15.45;71.89;99608.03;5090686;28;20028;-81
2023/04/04 11:13:24;;;;;;;70.57;13.60;;;;;;;15.57;71.89;99630.16;5090520;28;20039;-83
2023/04/04 11:15:57;;;;;;;44.72;10.40;;;;;;;15.58;71.49;99621.00;5090486;28;20631;-80
2023/04/04 11:18:44;;;;;;;44.35;11.93;;;;;;;15.44;72.17;99619.06;5089998;28;20452;-81